createdAt,value
2023-04-17T00:04:18.124Z,82.03
2023-04-17T00:11:19.982Z,81.61
2023-04-17T00:18:21.541Z,81.55
2023-04-17T00:25:23.277Z,80.84
2023-04-17T00:32:25.044Z,80.35
2023-04-17T00:39:27.019Z,80.80
2023-04-17T00:46:28.696Z,79.94
2023-04-17T00:53:33.519Z,79.78
2023-04-17T01:00:35.351Z,79.65
2023-04-17T01:07:37.320Z,79.44
2023-04-17T01:14:38.873Z,78.36
2023-04-17T01:21:41.404Z,78.19
2023-04-17T01:28:43.150Z,77.53
2023-04-17T01:35:44.903Z,76.99
2023-04-17T01:42:46.651Z,76.99
2023-04-17T01:49:48.290Z,76.96
2023-04-17T01:56:49.962Z,75.58
2023-04-17T02:03:51.751Z,75.63
2023-04-17T02:10:53.433Z,75.31
2023-04-17T02:17:55.634Z,76.53
2023-04-17T02:24:57.280Z,76.02
2023-04-17T02:32:01.063Z,75.52
2023-04-17T02:39:02.899Z,75.24
2023-04-17T02:46:04.561Z,74.94
2023-04-17T02:53:06.264Z,75.49
2023-04-17T03:00:08.555Z,74.80
2023-04-17T03:07:10.826Z,75.46
2023-04-17T03:14:13.448Z,74.80
2023-04-17T03:21:15.072Z,74.37
2023-04-17T03:28:16.718Z,73.62
2023-04-17T03:35:19.120Z,74.41
2023-04-17T03:42:21.013Z,75.02
2023-04-17T03:49:22.944Z,74.76
2023-04-17T03:56:26.001Z,75.25
2023-04-17T04:03:28.579Z,75.03
2023-04-17T04:10:32.407Z,75.47
2023-04-17T04:17:34.669Z,75.09
2023-04-17T04:24:38.108Z,75.48
2023-04-17T04:31:40.025Z,76.30
2023-04-17T04:38:42.491Z,76.64
2023-04-17T04:45:56.227Z,75.96
2023-04-17T04:53:01.056Z,76.98
2023-04-17T05:00:14.497Z,77.56
2023-04-17T05:07:18.896Z,77.04
2023-04-17T05:14:20.876Z,76.68
2023-04-17T05:21:23.468Z,76.95
2023-04-17T05:28:27.273Z,77.44
2023-04-17T05:35:31.687Z,80.23
2023-04-17T05:42:34.515Z,78.57
2023-04-17T05:49:36.486Z,77.37
2023-04-17T05:56:38.670Z,77.51
2023-04-17T06:03:40.788Z,76.85
2023-04-17T06:10:48.830Z,76.94
2023-04-17T06:17:50.710Z,76.92
2023-04-17T06:24:53.106Z,76.67
2023-04-17T06:31:54.854Z,76.12
2023-04-17T06:38:57.544Z,77.87
2023-04-17T06:45:59.409Z,76.58
2023-04-17T06:53:01.087Z,76.92
2023-04-17T07:00:03.609Z,75.74
2023-04-17T07:07:05.425Z,76.36
2023-04-17T07:14:06.943Z,76.35
2023-04-17T07:21:08.547Z,76.53
2023-04-17T07:28:10.171Z,75.13
2023-04-17T07:35:11.688Z,74.33
2023-04-17T07:42:13.242Z,75.01
2023-04-17T07:49:14.936Z,74.51
2023-04-17T07:56:17.519Z,74.75
2023-04-17T08:03:22.259Z,72.79
2023-04-17T08:10:24.120Z,72.74
2023-04-17T08:17:26.157Z,71.59
2023-04-17T08:24:27.985Z,71.96
2023-04-17T08:31:29.661Z,71.18
2023-04-17T08:38:31.356Z,69.42
2023-04-17T08:45:32.894Z,72.05
2023-04-17T08:52:38.324Z,70.64
2023-04-17T08:59:43.333Z,69.87
2023-04-17T09:06:54.312Z,69.85
2023-04-17T09:13:56.241Z,69.16
2023-04-17T09:20:59.626Z,68.70
2023-04-17T09:28:11.518Z,68.61
2023-04-17T09:35:25.952Z,67.23
2023-04-17T09:42:27.892Z,66.94
2023-04-17T09:49:33.623Z,63.81
2023-04-17T09:56:36.130Z,59.72
2023-04-17T10:03:38.154Z,55.77
2023-04-17T10:10:40.237Z,57.38
2023-04-17T10:17:41.866Z,57.10
2023-04-17T10:24:49.354Z,56.86
2023-04-17T10:32:09.622Z,56.30
2023-04-17T10:39:18.023Z,57.53
2023-04-17T10:46:19.613Z,56.58
2023-04-17T10:53:40.625Z,56.54
2023-04-17T11:00:51.881Z,53.71
2023-04-17T11:07:53.550Z,54.24
2023-04-17T11:15:01.857Z,53.18
2023-04-17T11:22:03.737Z,50.58
2023-04-17T11:29:19.988Z,50.72
2023-04-17T11:36:21.880Z,51.79
2023-04-17T11:43:23.547Z,54.12
2023-04-17T11:50:29.521Z,52.37
2023-04-17T11:57:41.201Z,47.69
2023-04-17T12:04:42.866Z,49.64
2023-04-17T12:11:44.479Z,50.13
2023-04-17T12:18:46.267Z,50.71
2023-04-17T12:25:47.773Z,53.16
2023-04-17T12:32:49.482Z,54.19
2023-04-17T12:39:51.126Z,55.66
2023-04-17T12:46:52.708Z,54.85
2023-04-17T12:53:54.956Z,54.32
2023-04-17T13:00:56.615Z,51.63
2023-04-17T13:07:59.348Z,52.55
2023-04-17T13:15:00.956Z,53.56
2023-04-17T13:22:02.584Z,55.26
2023-04-17T13:29:04.115Z,55.87
2023-04-17T13:36:06.541Z,56.62
2023-04-17T13:43:09.050Z,57.75
2023-04-17T13:50:10.657Z,58.52
2023-04-17T13:57:14.444Z,59.09
2023-04-17T14:04:16.273Z,59.99
2023-04-17T14:11:19.183Z,60.16
2023-04-17T14:18:21.180Z,60.66
2023-04-17T14:25:22.733Z,62.04
2023-04-17T14:32:24.307Z,65.65
2023-04-17T14:39:25.863Z,69.25
2023-04-17T14:46:27.479Z,70.19
2023-04-17T14:53:29.040Z,71.71
2023-04-17T15:00:31.793Z,73.06
2023-04-17T15:07:33.395Z,74.06
2023-04-17T15:14:35.088Z,71.90
2023-04-17T15:21:36.659Z,72.90
2023-04-17T15:28:38.995Z,72.79
2023-04-17T15:35:40.533Z,73.98
2023-04-17T15:42:42.067Z,72.38
2023-04-17T15:49:43.723Z,72.54
2023-04-17T15:56:45.277Z,73.42
2023-04-17T16:03:47.641Z,73.99
2023-04-17T16:10:49.422Z,74.66
2023-04-17T16:17:51.000Z,71.77
2023-04-17T16:24:52.565Z,71.87
2023-04-17T16:31:54.514Z,71.69
2023-04-17T16:38:56.192Z,71.15
2023-04-17T16:45:58.512Z,70.68
2023-04-17T16:53:01.210Z,72.73
2023-04-17T17:00:03.272Z,72.99
2023-04-17T17:07:04.907Z,73.17
2023-04-17T17:14:06.455Z,74.28
2023-04-17T17:21:07.991Z,73.43
2023-04-17T17:28:09.544Z,74.56
2023-04-17T17:35:11.164Z,78.44
2023-04-17T17:42:12.716Z,77.25
2023-04-17T17:49:14.232Z,75.46
2023-04-17T17:56:15.778Z,76.09
2023-04-17T18:03:17.720Z,76.95
2023-04-17T18:10:19.376Z,78.92
2023-04-17T18:17:21.017Z,79.85
2023-04-17T18:24:22.635Z,78.82
2023-04-17T18:31:26.031Z,80.41
2023-04-17T18:38:27.624Z,81.30
2023-04-17T18:45:29.223Z,79.96
2023-04-17T18:52:30.725Z,83.99
2023-04-17T18:59:32.272Z,83.22
2023-04-17T19:06:33.888Z,82.79
2023-04-17T19:13:35.532Z,85.05
2023-04-17T19:20:37.137Z,83.00
2023-04-17T19:27:38.726Z,83.48
2023-04-17T19:34:40.379Z,82.77
2023-04-17T19:41:42.623Z,84.19
2023-04-17T19:48:44.794Z,84.49
2023-04-17T19:55:46.419Z,84.42
2023-04-17T20:02:48.198Z,84.62
2023-04-17T20:09:49.884Z,84.23
2023-04-17T20:16:51.473Z,83.92
2023-04-17T20:23:54.969Z,83.35
2023-04-17T20:30:56.710Z,82.86
2023-04-17T20:37:58.492Z,82.82
2023-04-17T20:45:00.261Z,84.09
2023-04-17T20:52:02.956Z,83.40
2023-04-17T20:59:04.505Z,83.24
2023-04-17T21:06:06.221Z,82.43
2023-04-17T21:13:07.793Z,82.17
2023-04-17T21:20:09.894Z,82.66
2023-04-17T21:27:11.593Z,82.75
2023-04-17T21:34:13.421Z,82.75
2023-04-17T21:41:15.117Z,81.17
2023-04-17T21:48:16.696Z,80.68
2023-04-17T21:55:18.230Z,81.36
2023-04-17T22:02:19.779Z,80.72
2023-04-17T22:09:21.437Z,80.78
2023-04-17T22:16:23.067Z,80.15
2023-04-17T22:23:24.741Z,79.42
2023-04-17T22:30:26.257Z,79.99
2023-04-17T22:37:27.766Z,78.91
2023-04-17T22:44:29.310Z,78.05
2023-04-17T22:51:31.072Z,79.68
2023-04-17T22:58:33.198Z,81.06
2023-04-17T23:05:34.852Z,80.34
2023-04-17T23:12:36.368Z,79.52
2023-04-17T23:19:37.949Z,78.36
2023-04-17T23:26:39.461Z,79.61
2023-04-17T23:33:41.089Z,78.37
2023-04-17T23:40:42.631Z,77.79
2023-04-17T23:47:44.247Z,77.54
2023-04-17T23:54:45.779Z,79.02
